sensor_id;sensor_type;location;lat;lon;timestamp;P1;durP1;ratioP1;P2;durP2;ratioP2
7211;SDS011;3647;48.792;9.802;2023-02-16T07:36:36;32.67;;;19.30;;
7211;SDS011;3647;48.792;9.802;2023-02-16T07:39:03;25.77;;;19.47;;
7211;SDS011;3647;48.792;9.802;2023-02-16T07:41:30;29.43;;;17.80;;
7211;SDS011;3647;48.792;9.802;2023-02-16T07:43:57;31.10;;;18.23;;
7211;SDS011;3647;48.792;9.802;2023-02-16T07:46:24;25.73;;;18.57;;
7211;SDS011;3647;48.792;9.802;2023-02-16T07:48:51;29.83;;;19.33;;
7211;SDS011;3647;48.792;9.802;2023-02-16T07:51:21;30.43;;;17.70;;
7211;SDS011;3647;48.792;9.802;2023-02-16T07:53:50;28.10;;;18.03;;
7211;SDS011;3647;48.792;9.802;2023-02-16T07:56:17;29.77;;;17.63;;
7211;SDS011;3647;48.792;9.802;2023-02-16T07:58:45;32.90;;;18.73;;
7211;SDS011;3647;48.792;9.802;2023-02-16T08:01:12;25.27;;;17.80;;
7211;SDS011;3647;48.792;9.802;2023-02-16T08:03:39;34.03;;;20.03;;
7211;SDS011;3647;48.792;9.802;2023-02-16T08:06:06;30.43;;;18.70;;
7211;SDS011;3647;48.792;9.802;2023-02-16T08:08:34;31.50;;;19.73;;
7211;SDS011;3647;48.792;9.802;2023-02-16T08:11:08;29.43;;;19.90;;
7211;SDS011;3647;48.792;9.802;2023-02-16T08:13:35;29.17;;;19.10;;
7211;SDS011;3647;48.792;9.802;2023-02-16T08:16:06;33.10;;;19.90;;
7211;SDS011;3647;48.792;9.802;2023-02-16T08:18:33;30.97;;;18.53;;
7211;SDS011;3647;48.792;9.802;2023-02-16T08:21:05;31.07;;;19.80;;
7211;SDS011;3647;48.792;9.802;2023-02-16T08:23:37;32.83;;;20.73;;
7211;SDS011;3647;48.792;9.802;2023-02-16T08:26:07;32.57;;;20.60;;
7211;SDS011;3647;48.792;9.802;2023-02-16T08:28:36;31.47;;;19.87;;
7211;SDS011;3647;48.792;9.802;2023-02-16T08:31:03;30.73;;;19.57;;
7211;SDS011;3647;48.792;9.802;2023-02-16T08:33:30;31.87;;;19.40;;
7211;SDS011;3647;48.792;9.802;2023-02-16T08:35:58;31.47;;;18.13;;
7211;SDS011;3647;48.792;9.802;2023-02-16T08:38:25;33.77;;;19.47;;
7211;SDS011;3647;48.792;9.802;2023-02-16T08:40:51;34.97;;;20.43;;
7211;SDS011;3647;48.792;9.802;2023-02-16T08:43:20;31.27;;;20.80;;
7211;SDS011;3647;48.792;9.802;2023-02-16T08:45:47;33.13;;;21.07;;
7211;SDS011;3647;48.792;9.802;2023-02-16T08:48:15;31.93;;;20.90;;
7211;SDS011;3647;48.792;9.802;2023-02-16T08:50:42;35.37;;;20.63;;
7211;SDS011;3647;48.792;9.802;2023-02-16T08:53:11;30.67;;;21.50;;
7211;SDS011;3647;48.792;9.802;2023-02-16T08:55:38;34.87;;;21.10;;
7211;SDS011;3647;48.792;9.802;2023-02-16T08:58:04;34.60;;;21.37;;
7211;SDS011;3647;48.792;9.802;2023-02-16T09:00:33;37.13;;;21.93;;
7211;SDS011;3647;48.792;9.802;2023-02-16T09:03:00;32.40;;;21.27;;
7211;SDS011;3647;48.792;9.802;2023-02-16T09:05:28;30.80;;;21.33;;
7211;SDS011;3647;48.792;9.802;2023-02-16T09:07:55;33.90;;;21.57;;
7211;SDS011;3647;48.792;9.802;2023-02-16T09:10:22;33.30;;;22.93;;
7211;SDS011;3647;48.792;9.802;2023-02-16T09:12:49;27.83;;;20.77;;
7211;SDS011;3647;48.792;9.802;2023-02-16T09:15:16;31.27;;;18.87;;
7211;SDS011;3647;48.792;9.802;2023-02-16T09:17:44;31.73;;;19.83;;
7211;SDS011;3647;48.792;9.802;2023-02-16T09:20:11;27.73;;;18.73;;
7211;SDS011;3647;48.792;9.802;2023-02-16T09:22:38;29.23;;;19.80;;
7211;SDS011;3647;48.792;9.802;2023-02-16T09:25:06;25.80;;;17.47;;
7211;SDS011;3647;48.792;9.802;2023-02-16T09:27:34;26.43;;;18.47;;
7211;SDS011;3647;48.792;9.802;2023-02-16T09:30:01;25.27;;;18.20;;
7211;SDS011;3647;48.792;9.802;2023-02-16T09:32:30;25.73;;;17.73;;
7211;SDS011;3647;48.792;9.802;2023-02-16T09:34:59;31.30;;;19.87;;
7211;SDS011;3647;48.792;9.802;2023-02-16T09:37:25;30.13;;;18.47;;
7211;SDS011;3647;48.792;9.802;2023-02-16T09:39:52;29.10;;;19.23;;
7211;SDS011;3647;48.792;9.802;2023-02-16T09:42:22;25.83;;;18.00;;
7211;SDS011;3647;48.792;9.802;2023-02-16T09:44:57;26.37;;;18.27;;
7211;SDS011;3647;48.792;9.802;2023-02-16T09:47:31;27.07;;;17.93;;
7211;SDS011;3647;48.792;9.802;2023-02-16T09:50:03;32.73;;;17.37;;
7211;SDS011;3647;48.792;9.802;2023-02-16T09:52:38;23.80;;;17.03;;
7211;SDS011;3647;48.792;9.802;2023-02-16T09:55:10;24.70;;;15.33;;
7211;SDS011;3647;48.792;9.802;2023-02-16T09:57:41;20.93;;;15.97;;
7211;SDS011;3647;48.792;9.802;2023-02-16T10:00:23;24.37;;;15.40;;
7211;SDS011;3647;48.792;9.802;2023-02-16T10:02:56;23.50;;;14.90;;
7211;SDS011;3647;48.792;9.802;2023-02-16T10:05:40;20.57;;;13.13;;
7211;SDS011;3647;48.792;9.802;2023-02-16T10:08:13;17.23;;;12.17;;
7211;SDS011;3647;48.792;9.802;2023-02-16T10:10:43;17.57;;;11.10;;
7211;SDS011;3647;48.792;9.802;2023-02-16T10:13:17;14.93;;;10.37;;
7211;SDS011;3647;48.792;9.802;2023-02-16T10:15:49;18.27;;;11.23;;
7211;SDS011;3647;48.792;9.802;2023-02-16T10:18:19;15.70;;;9.80;;
7211;SDS011;3647;48.792;9.802;2023-02-16T10:20:53;16.47;;;10.77;;
7211;SDS011;3647;48.792;9.802;2023-02-16T10:23:25;13.97;;;9.53;;
7211;SDS011;3647;48.792;9.802;2023-02-16T10:26:01;11.77;;;8.27;;
7211;SDS011;3647;48.792;9.802;2023-02-16T10:28:39;15.17;;;9.27;;
7211;SDS011;3647;48.792;9.802;2023-02-16T10:31:12;13.40;;;9.33;;
7211;SDS011;3647;48.792;9.802;2023-02-16T10:33:50;12.23;;;8.40;;
7211;SDS011;3647;48.792;9.802;2023-02-16T10:36:31;13.63;;;8.50;;
7211;SDS011;3647;48.792;9.802;2023-02-16T10:39:21;17.63;;;8.50;;
7211;SDS011;3647;48.792;9.802;2023-02-16T10:41:54;10.90;;;8.07;;
7211;SDS011;3647;48.792;9.802;2023-02-16T10:44:28;12.10;;;7.80;;
7211;SDS011;3647;48.792;9.802;2023-02-16T10:47:02;14.00;;;7.97;;
7211;SDS011;3647;48.792;9.802;2023-02-16T10:49:31;11.30;;;7.23;;
7211;SDS011;3647;48.792;9.802;2023-02-16T10:52:02;11.63;;;7.40;;
7211;SDS011;3647;48.792;9.802;2023-02-16T10:54:32;9.20;;;6.50;;
7211;SDS011;3647;48.792;9.802;2023-02-16T10:57:00;10.00;;;6.50;;
7211;SDS011;3647;48.792;9.802;2023-02-16T10:59:30;10.90;;;7.33;;
7211;SDS011;3647;48.792;9.802;2023-02-16T11:02:02;9.07;;;7.00;;
7211;SDS011;3647;48.792;9.802;2023-02-16T11:04:42;10.83;;;6.53;;
7211;SDS011;3647;48.792;9.802;2023-02-16T11:07:12;10.17;;;6.53;;
7211;SDS011;3647;48.792;9.802;2023-02-16T11:09:41;8.97;;;6.93;;
7211;SDS011;3647;48.792;9.802;2023-02-16T11:12:14;8.03;;;6.80;;
7211;SDS011;3647;48.792;9.802;2023-02-16T11:14:56;8.67;;;6.73;;
7211;SDS011;3647;48.792;9.802;2023-02-16T11:17:27;7.87;;;5.93;;
7211;SDS011;3647;48.792;9.802;2023-02-16T11:19:57;8.70;;;6.50;;
7211;SDS011;3647;48.792;9.802;2023-02-16T11:22:31;9.00;;;6.50;;
7211;SDS011;3647;48.792;9.802;2023-02-16T11:27:51;9.67;;;5.97;;
7211;SDS011;3647;48.792;9.802;2023-02-16T11:30:21;10.20;;;5.53;;
7211;SDS011;3647;48.792;9.802;2023-02-16T11:32:56;8.73;;;5.87;;
7211;SDS011;3647;48.792;9.802;2023-02-16T11:35:25;7.97;;;5.50;;
7211;SDS011;3647;48.792;9.802;2023-02-16T11:37:53;8.50;;;5.93;;
7211;SDS011;3647;48.792;9.802;2023-02-16T11:40:22;9.57;;;6.33;;
7211;SDS011;3647;48.792;9.802;2023-02-16T11:42:52;8.23;;;6.17;;
7211;SDS011;3647;48.792;9.802;2023-02-16T11:45:22;7.67;;;5.80;;
7211;SDS011;3647;48.792;9.802;2023-02-16T11:47:52;8.23;;;5.20;;
7211;SDS011;3647;48.792;9.802;2023-02-16T11:50:22;8.43;;;6.37;;
7211;SDS011;3647;48.792;9.802;2023-02-16T11:52:56;8.70;;;5.87;;
7211;SDS011;3647;48.792;9.802;2023-02-16T11:55:38;7.87;;;5.70;;
7211;SDS011;3647;48.792;9.802;2023-02-16T11:58:14;10.70;;;6.90;;
7211;SDS011;3647;48.792;9.802;2023-02-16T12:00:45;7.70;;;6.27;;
7211;SDS011;3647;48.792;9.802;2023-02-16T12:03:25;8.60;;;5.97;;
7211;SDS011;3647;48.792;9.802;2023-02-16T12:06:08;9.70;;;6.07;;
7211;SDS011;3647;48.792;9.802;2023-02-16T12:08:54;8.60;;;6.27;;
7211;SDS011;3647;48.792;9.802;2023-02-16T12:11:36;10.03;;;7.00;;
7211;SDS011;3647;48.792;9.802;2023-02-16T12:14:13;9.03;;;6.60;;
7211;SDS011;3647;48.792;9.802;2023-02-16T12:16:49;9.80;;;5.93;;
7211;SDS011;3647;48.792;9.802;2023-02-16T12:19:27;9.77;;;5.93;;
7211;SDS011;3647;48.792;9.802;2023-02-16T12:22:03;7.43;;;5.73;;
7211;SDS011;3647;48.792;9.802;2023-02-16T12:24:43;7.67;;;5.13;;
7211;SDS011;3647;48.792;9.802;2023-02-16T12:27:17;9.87;;;5.80;;
7211;SDS011;3647;48.792;9.802;2023-02-16T12:29:49;10.17;;;6.13;;
7211;SDS011;3647;48.792;9.802;2023-02-16T12:32:26;7.27;;;5.20;;
7211;SDS011;3647;48.792;9.802;2023-02-16T12:35:28;8.57;;;5.53;;
7211;SDS011;3647;48.792;9.802;2023-02-16T12:38:06;8.43;;;5.60;;
7211;SDS011;3647;48.792;9.802;2023-02-16T12:40:45;9.53;;;5.30;;
7211;SDS011;3647;48.792;9.802;2023-02-16T12:43:27;8.10;;;5.37;;
7211;SDS011;3647;48.792;9.802;2023-02-16T12:46:00;8.93;;;5.20;;
7211;SDS011;3647;48.792;9.802;2023-02-16T12:48:38;7.47;;;5.50;;
7211;SDS011;3647;48.792;9.802;2023-02-16T12:51:12;7.87;;;5.37;;
7211;SDS011;3647;48.792;9.802;2023-02-16T12:53:44;9.57;;;5.10;;
7211;SDS011;3647;48.792;9.802;2023-02-16T12:56:17;6.70;;;5.60;;
7211;SDS011;3647;48.792;9.802;2023-02-16T12:58:50;9.17;;;5.80;;
7211;SDS011;3647;48.792;9.802;2023-02-16T13:01:24;9.57;;;5.43;;
7211;SDS011;3647;48.792;9.802;2023-02-16T13:03:54;10.23;;;5.73;;
7211;SDS011;3647;48.792;9.802;2023-02-16T13:06:26;8.13;;;5.97;;
7211;SDS011;3647;48.792;9.802;2023-02-16T13:08:59;8.80;;;5.77;;
7211;SDS011;3647;48.792;9.802;2023-02-16T13:11:39;6.63;;;4.93;;
7211;SDS011;3647;48.792;9.802;2023-02-16T13:14:12;6.43;;;4.70;;
7211;SDS011;3647;48.792;9.802;2023-02-16T13:16:43;7.03;;;5.47;;
7211;SDS011;3647;48.792;9.802;2023-02-16T13:19:13;8.93;;;5.17;;
7211;SDS011;3647;48.792;9.802;2023-02-16T13:21:55;6.63;;;5.73;;
7211;SDS011;3647;48.792;9.802;2023-02-16T13:24:37;6.20;;;4.77;;
7211;SDS011;3647;48.792;9.802;2023-02-16T13:27:19;7.03;;;5.23;;
7211;SDS011;3647;48.792;9.802;2023-02-16T13:29:59;6.87;;;5.07;;
7211;SDS011;3647;48.792;9.802;2023-02-16T13:32:56;7.30;;;5.17;;
7211;SDS011;3647;48.792;9.802;2023-02-16T13:41:58;6.10;;;4.60;;
7211;SDS011;3647;48.792;9.802;2023-02-16T13:44:47;6.97;;;4.70;;
7211;SDS011;3647;48.792;9.802;2023-02-16T13:47:17;8.80;;;4.77;;
7211;SDS011;3647;48.792;9.802;2023-02-16T13:49:49;6.67;;;4.43;;
7211;SDS011;3647;48.792;9.802;2023-02-16T13:52:27;8.70;;;5.20;;
7211;SDS011;3647;48.792;9.802;2023-02-16T13:54:56;7.57;;;4.40;;
7211;SDS011;3647;48.792;9.802;2023-02-16T14:00:34;5.73;;;4.73;;
7211;SDS011;3647;48.792;9.802;2023-02-16T14:03:04;9.10;;;5.07;;
7211;SDS011;3647;48.792;9.802;2023-02-16T14:05:36;6.97;;;4.50;;
7211;SDS011;3647;48.792;9.802;2023-02-16T14:08:09;6.50;;;4.50;;
7211;SDS011;3647;48.792;9.802;2023-02-16T14:11:01;6.77;;;5.30;;
7211;SDS011;3647;48.792;9.802;2023-02-16T14:13:33;7.73;;;5.40;;
7211;SDS011;3647;48.792;9.802;2023-02-16T14:16:26;10.80;;;5.47;;
7211;SDS011;3647;48.792;9.802;2023-02-16T14:18:59;7.80;;;5.10;;
7211;SDS011;3647;48.792;9.802;2023-02-16T14:21:34;6.67;;;5.17;;
7211;SDS011;3647;48.792;9.802;2023-02-16T14:24:04;7.93;;;5.30;;
7211;SDS011;3647;48.792;9.802;2023-02-16T14:26:49;6.07;;;4.37;;
7211;SDS011;3647;48.792;9.802;2023-02-16T14:29:19;8.20;;;5.57;;
7211;SDS011;3647;48.792;9.802;2023-02-16T14:31:52;7.60;;;5.40;;
7211;SDS011;3647;48.792;9.802;2023-02-16T14:34:24;7.60;;;5.27;;
7211;SDS011;3647;48.792;9.802;2023-02-16T14:37:20;10.40;;;5.53;;
7211;SDS011;3647;48.792;9.802;2023-02-16T14:40:03;11.53;;;5.30;;
7211;SDS011;3647;48.792;9.802;2023-02-16T14:42:43;10.23;;;5.63;;
7211;SDS011;3647;48.792;9.802;2023-02-16T14:48:26;9.63;;;6.13;;
7211;SDS011;3647;48.792;9.802;2023-02-16T14:51:09;7.27;;;5.50;;
7211;SDS011;3647;48.792;9.802;2023-02-16T14:57:12;8.30;;;5.47;;
7211;SDS011;3647;48.792;9.802;2023-02-16T14:59:43;8.57;;;5.80;;
7211;SDS011;3647;48.792;9.802;2023-02-16T15:02:27;6.87;;;4.90;;
7211;SDS011;3647;48.792;9.802;2023-02-16T15:05:02;11.07;;;5.80;;
7211;SDS011;3647;48.792;9.802;2023-02-16T15:07:40;9.97;;;6.37;;
7211;SDS011;3647;48.792;9.802;2023-02-16T15:10:10;7.27;;;5.30;;
7211;SDS011;3647;48.792;9.802;2023-02-16T15:12:39;11.37;;;5.80;;
7211;SDS011;3647;48.792;9.802;2023-02-16T15:15:08;11.93;;;5.77;;
7211;SDS011;3647;48.792;9.802;2023-02-16T15:17:44;9.67;;;5.50;;
7211;SDS011;3647;48.792;9.802;2023-02-16T15:20:18;7.40;;;5.17;;
7211;SDS011;3647;48.792;9.802;2023-02-16T15:22:49;6.63;;;4.53;;
7211;SDS011;3647;48.792;9.802;2023-02-16T15:25:21;9.63;;;4.90;;
7211;SDS011;3647;48.792;9.802;2023-02-16T15:27:54;9.03;;;4.90;;
7211;SDS011;3647;48.792;9.802;2023-02-16T15:30:25;11.23;;;7.13;;
7211;SDS011;3647;48.792;9.802;2023-02-16T15:32:54;10.60;;;5.60;;
7211;SDS011;3647;48.792;9.802;2023-02-16T15:35:26;8.47;;;5.43;;
7211;SDS011;3647;48.792;9.802;2023-02-16T15:37:59;5.83;;;4.77;;
7211;SDS011;3647;48.792;9.802;2023-02-16T15:40:28;6.67;;;4.93;;
7211;SDS011;3647;48.792;9.802;2023-02-16T15:42:59;11.30;;;4.67;;
7211;SDS011;3647;48.792;9.802;2023-02-16T15:45:34;9.23;;;5.30;;
7211;SDS011;3647;48.792;9.802;2023-02-16T15:48:12;7.10;;;4.67;;
7211;SDS011;3647;48.792;9.802;2023-02-16T15:50:48;8.20;;;4.90;;
7211;SDS011;3647;48.792;9.802;2023-02-16T15:53:21;6.60;;;4.73;;
7211;SDS011;3647;48.792;9.802;2023-02-16T15:55:51;10.97;;;5.50;;
7211;SDS011;3647;48.792;9.802;2023-02-16T15:58:18;10.43;;;6.07;;
7211;SDS011;3647;48.792;9.802;2023-02-16T16:00:46;12.07;;;6.17;;
7211;SDS011;3647;48.792;9.802;2023-02-16T16:03:13;12.90;;;6.23;;
7211;SDS011;3647;48.792;9.802;2023-02-16T16:05:42;11.30;;;6.90;;
7211;SDS011;3647;48.792;9.802;2023-02-16T16:08:24;9.53;;;6.27;;
7211;SDS011;3647;48.792;9.802;2023-02-16T16:10:53;10.93;;;6.80;;
7211;SDS011;3647;48.792;9.802;2023-02-16T16:13:22;11.73;;;6.80;;
7211;SDS011;3647;48.792;9.802;2023-02-16T16:15:51;11.70;;;6.67;;
7211;SDS011;3647;48.792;9.802;2023-02-16T16:18:39;11.50;;;6.37;;
7211;SDS011;3647;48.792;9.802;2023-02-16T16:21:23;9.90;;;6.93;;
7211;SDS011;3647;48.792;9.802;2023-02-16T16:23:57;10.13;;;6.30;;
7211;SDS011;3647;48.792;9.802;2023-02-16T16:26:28;19.03;;;7.23;;
7211;SDS011;3647;48.792;9.802;2023-02-16T16:28:56;8.80;;;5.97;;
7211;SDS011;3647;48.792;9.802;2023-02-16T16:31:32;12.17;;;6.47;;
7211;SDS011;3647;48.792;9.802;2023-02-16T16:34:04;9.80;;;6.13;;
7211;SDS011;3647;48.792;9.802;2023-02-16T16:36:34;9.83;;;6.83;;
7211;SDS011;3647;48.792;9.802;2023-02-16T16:39:09;7.80;;;6.17;;
7211;SDS011;3647;48.792;9.802;2023-02-16T16:41:45;9.50;;;6.00;;
7211;SDS011;3647;48.792;9.802;2023-02-16T16:44:27;12.03;;;6.30;;
7211;SDS011;3647;48.792;9.802;2023-02-16T16:47:09;10.50;;;7.33;;
7211;SDS011;3647;48.792;9.802;2023-02-16T16:49:47;18.20;;;8.53;;
7211;SDS011;3647;48.792;9.802;2023-02-16T16:52:28;14.23;;;7.67;;
7211;SDS011;3647;48.792;9.802;2023-02-16T16:55:00;13.83;;;6.97;;
7211;SDS011;3647;48.792;9.802;2023-02-16T16:57:46;12.43;;;7.43;;
7211;SDS011;3647;48.792;9.802;2023-02-16T17:00:14;10.97;;;7.03;;
7211;SDS011;3647;48.792;9.802;2023-02-16T17:02:42;11.20;;;7.73;;
7211;SDS011;3647;48.792;9.802;2023-02-16T17:05:09;10.70;;;7.73;;
7211;SDS011;3647;48.792;9.802;2023-02-16T17:07:37;11.87;;;8.47;;
7211;SDS011;3647;48.792;9.802;2023-02-16T17:10:04;12.07;;;8.47;;
7211;SDS011;3647;48.792;9.802;2023-02-16T17:12:32;18.53;;;8.60;;
7211;SDS011;3647;48.792;9.802;2023-02-16T17:14:59;36.70;;;20.27;;
7211;SDS011;3647;48.792;9.802;2023-02-16T17:17:27;24.90;;;14.93;;
7211;SDS011;3647;48.792;9.802;2023-02-16T17:19:54;16.17;;;10.80;;
7211;SDS011;3647;48.792;9.802;2023-02-16T17:22:20;15.90;;;9.53;;
7211;SDS011;3647;48.792;9.802;2023-02-16T17:24:48;12.73;;;7.53;;
7211;SDS011;3647;48.792;9.802;2023-02-16T17:27:15;12.10;;;7.87;;
7211;SDS011;3647;48.792;9.802;2023-02-16T17:29:43;19.27;;;10.13;;
7211;SDS011;3647;48.792;9.802;2023-02-16T17:32:10;17.27;;;9.17;;
7211;SDS011;3647;48.792;9.802;2023-02-16T17:34:37;14.40;;;9.57;;
7211;SDS011;3647;48.792;9.802;2023-02-16T17:37:05;15.77;;;9.47;;
7211;SDS011;3647;48.792;9.802;2023-02-16T17:39:32;18.97;;;9.03;;
7211;SDS011;3647;48.792;9.802;2023-02-16T17:42:01;12.90;;;9.30;;
7211;SDS011;3647;48.792;9.802;2023-02-16T17:44:28;14.17;;;10.13;;
7211;SDS011;3647;48.792;9.802;2023-02-16T17:46:55;17.10;;;11.50;;
7211;SDS011;3647;48.792;9.802;2023-02-16T17:49:22;20.03;;;12.07;;
7211;SDS011;3647;48.792;9.802;2023-02-16T17:51:49;21.67;;;11.17;;
7211;SDS011;3647;48.792;9.802;2023-02-16T17:54:15;19.40;;;11.20;;
7211;SDS011;3647;48.792;9.802;2023-02-16T17:56:42;15.37;;;10.97;;
7211;SDS011;3647;48.792;9.802;2023-02-16T17:59:11;18.77;;;11.30;;
7211;SDS011;3647;48.792;9.802;2023-02-16T18:01:40;19.97;;;11.53;;
7211;SDS011;3647;48.792;9.802;2023-02-16T18:04:06;18.23;;;11.40;;
7211;SDS011;3647;48.792;9.802;2023-02-16T18:06:33;26.73;;;13.37;;
7211;SDS011;3647;48.792;9.802;2023-02-16T18:09:00;33.40;;;19.43;;
7211;SDS011;3647;48.792;9.802;2023-02-16T18:11:27;23.83;;;15.63;;
7211;SDS011;3647;48.792;9.802;2023-02-16T18:13:54;27.53;;;16.47;;
7211;SDS011;3647;48.792;9.802;2023-02-16T18:16:23;21.37;;;14.07;;
7211;SDS011;3647;48.792;9.802;2023-02-16T18:18:52;19.77;;;12.67;;
7211;SDS011;3647;48.792;9.802;2023-02-16T18:21:19;19.43;;;12.63;;
7211;SDS011;3647;48.792;9.802;2023-02-16T18:23:45;17.50;;;11.63;;
7211;SDS011;3647;48.792;9.802;2023-02-16T18:26:12;18.40;;;11.93;;
7211;SDS011;3647;48.792;9.802;2023-02-16T18:28:40;15.97;;;12.07;;
7211;SDS011;3647;48.792;9.802;2023-02-16T18:31:07;19.03;;;12.43;;
7211;SDS011;3647;48.792;9.802;2023-02-16T18:33:36;20.37;;;12.13;;
7211;SDS011;3647;48.792;9.802;2023-02-16T18:36:03;19.73;;;12.30;;
7211;SDS011;3647;48.792;9.802;2023-02-16T18:38:30;18.77;;;11.30;;
7211;SDS011;3647;48.792;9.802;2023-02-16T18:40:56;19.33;;;12.17;;
7211;SDS011;3647;48.792;9.802;2023-02-16T18:43:23;19.83;;;11.63;;
7211;SDS011;3647;48.792;9.802;2023-02-16T18:45:50;16.60;;;11.53;;
7211;SDS011;3647;48.792;9.802;2023-02-16T18:48:17;23.17;;;10.57;;
7211;SDS011;3647;48.792;9.802;2023-02-16T18:50:45;22.97;;;12.03;;
7211;SDS011;3647;48.792;9.802;2023-02-16T18:53:12;15.23;;;11.47;;
7211;SDS011;3647;48.792;9.802;2023-02-16T18:55:39;15.00;;;11.13;;
7211;SDS011;3647;48.792;9.802;2023-02-16T18:58:06;17.63;;;11.73;;
7211;SDS011;3647;48.792;9.802;2023-02-16T19:00:33;18.17;;;10.87;;
7211;SDS011;3647;48.792;9.802;2023-02-16T19:03:00;20.50;;;12.13;;
7211;SDS011;3647;48.792;9.802;2023-02-16T19:05:27;17.90;;;11.57;;
7211;SDS011;3647;48.792;9.802;2023-02-16T19:07:55;30.67;;;18.60;;
7211;SDS011;3647;48.792;9.802;2023-02-16T19:10:22;34.97;;;19.30;;
7211;SDS011;3647;48.792;9.802;2023-02-16T19:12:49;31.13;;;16.80;;
7211;SDS011;3647;48.792;9.802;2023-02-16T19:15:16;23.73;;;14.90;;
7211;SDS011;3647;48.792;9.802;2023-02-16T19:17:42;28.40;;;17.50;;
7211;SDS011;3647;48.792;9.802;2023-02-16T19:20:10;27.27;;;16.10;;
7211;SDS011;3647;48.792;9.802;2023-02-16T19:22:40;23.70;;;16.00;;
7211;SDS011;3647;48.792;9.802;2023-02-16T19:25:09;28.17;;;16.13;;
7211;SDS011;3647;48.792;9.802;2023-02-16T19:27:36;30.47;;;17.33;;
7211;SDS011;3647;48.792;9.802;2023-02-16T19:30:03;23.87;;;15.53;;
7211;SDS011;3647;48.792;9.802;2023-02-16T19:32:31;28.87;;;15.93;;
7211;SDS011;3647;48.792;9.802;2023-02-16T19:34:58;28.17;;;15.93;;
7211;SDS011;3647;48.792;9.802;2023-02-16T19:37:25;27.50;;;16.27;;
7211;SDS011;3647;48.792;9.802;2023-02-16T19:39:52;37.43;;;22.43;;
7211;SDS011;3647;48.792;9.802;2023-02-16T19:42:20;31.73;;;20.13;;
7211;SDS011;3647;48.792;9.802;2023-02-16T19:44:47;24.33;;;16.23;;
7211;SDS011;3647;48.792;9.802;2023-02-16T19:47:13;28.10;;;17.97;;
7211;SDS011;3647;48.792;9.802;2023-02-16T19:49:40;25.03;;;16.30;;
7211;SDS011;3647;48.792;9.802;2023-02-16T19:52:07;23.27;;;15.40;;
7211;SDS011;3647;48.792;9.802;2023-02-16T19:54:35;28.30;;;16.80;;
7211;SDS011;3647;48.792;9.802;2023-02-16T19:57:02;26.43;;;16.37;;
7211;SDS011;3647;48.792;9.802;2023-02-16T19:59:31;24.13;;;15.57;;
7211;SDS011;3647;48.792;9.802;2023-02-16T20:01:58;27.40;;;15.83;;
7211;SDS011;3647;48.792;9.802;2023-02-16T20:04:25;17.23;;;12.07;;
7211;SDS011;3647;48.792;9.802;2023-02-16T20:06:52;23.37;;;12.43;;
7211;SDS011;3647;48.792;9.802;2023-02-16T20:09:20;25.10;;;13.80;;
7211;SDS011;3647;48.792;9.802;2023-02-16T20:11:48;24.30;;;15.07;;
7211;SDS011;3647;48.792;9.802;2023-02-16T20:14:16;20.73;;;14.80;;
7211;SDS011;3647;48.792;9.802;2023-02-16T20:16:44;24.03;;;14.57;;
7211;SDS011;3647;48.792;9.802;2023-02-16T20:19:13;19.90;;;13.10;;
7211;SDS011;3647;48.792;9.802;2023-02-16T20:21:40;20.03;;;13.50;;
7211;SDS011;3647;48.792;9.802;2023-02-16T20:24:08;19.33;;;13.97;;
7211;SDS011;3647;48.792;9.802;2023-02-16T20:26:36;21.83;;;14.40;;
7211;SDS011;3647;48.792;9.802;2023-02-16T20:29:06;24.63;;;14.50;;
7211;SDS011;3647;48.792;9.802;2023-02-16T20:31:36;19.60;;;13.30;;
7211;SDS011;3647;48.792;9.802;2023-02-16T20:34:06;17.80;;;12.57;;
7211;SDS011;3647;48.792;9.802;2023-02-16T20:36:34;14.60;;;11.13;;
7211;SDS011;3647;48.792;9.802;2023-02-16T20:39:01;18.00;;;12.63;;
7211;SDS011;3647;48.792;9.802;2023-02-16T20:41:28;22.23;;;14.03;;
7211;SDS011;3647;48.792;9.802;2023-02-16T20:43:55;18.87;;;12.43;;
7211;SDS011;3647;48.792;9.802;2023-02-16T20:46:22;15.03;;;12.80;;
7211;SDS011;3647;48.792;9.802;2023-02-16T20:48:50;27.23;;;14.17;;
7211;SDS011;3647;48.792;9.802;2023-02-16T20:51:19;20.13;;;16.60;;
7211;SDS011;3647;48.792;9.802;2023-02-16T20:53:46;20.23;;;13.97;;
7211;SDS011;3647;48.792;9.802;2023-02-16T20:56:14;18.83;;;13.63;;
7211;SDS011;3647;48.792;9.802;2023-02-16T20:58:44;18.17;;;13.97;;
7211;SDS011;3647;48.792;9.802;2023-02-16T21:01:12;19.90;;;13.80;;
7211;SDS011;3647;48.792;9.802;2023-02-16T21:03:39;20.17;;;12.90;;
7211;SDS011;3647;48.792;9.802;2023-02-16T21:06:06;18.27;;;12.50;;
7211;SDS011;3647;48.792;9.802;2023-02-16T21:08:35;16.80;;;11.10;;
7211;SDS011;3647;48.792;9.802;2023-02-16T21:11:01;14.67;;;11.13;;
7211;SDS011;3647;48.792;9.802;2023-02-16T21:13:28;17.93;;;12.27;;
7211;SDS011;3647;48.792;9.802;2023-02-16T21:15:55;18.53;;;12.93;;
7211;SDS011;3647;48.792;9.802;2023-02-16T21:18:22;22.63;;;15.97;;
7211;SDS011;3647;48.792;9.802;2023-02-16T21:20:49;23.00;;;16.60;;
7211;SDS011;3647;48.792;9.802;2023-02-16T21:23:16;36.67;;;19.73;;
7211;SDS011;3647;48.792;9.802;2023-02-16T21:25:44;30.93;;;19.97;;
7211;SDS011;3647;48.792;9.802;2023-02-16T21:28:11;30.73;;;18.87;;
7211;SDS011;3647;48.792;9.802;2023-02-16T21:30:38;27.07;;;15.40;;
7211;SDS011;3647;48.792;9.802;2023-02-16T21:33:05;23.43;;;15.97;;
7211;SDS011;3647;48.792;9.802;2023-02-16T21:35:32;26.40;;;15.10;;
7211;SDS011;3647;48.792;9.802;2023-02-16T21:37:59;35.57;;;18.70;;
7211;SDS011;3647;48.792;9.802;2023-02-16T21:40:26;26.13;;;15.93;;
7211;SDS011;3647;48.792;9.802;2023-02-16T21:43:12;19.43;;;11.20;;
7211;SDS011;3647;48.792;9.802;2023-02-16T21:45:39;17.00;;;11.47;;
7211;SDS011;3647;48.792;9.802;2023-02-16T21:48:05;16.13;;;8.73;;
7211;SDS011;3647;48.792;9.802;2023-02-16T21:50:50;15.07;;;8.97;;
7211;SDS011;3647;48.792;9.802;2023-02-16T21:53:16;12.73;;;9.67;;
7211;SDS011;3647;48.792;9.802;2023-02-16T21:55:43;12.93;;;9.30;;
